Time;durP1;ratioP1;P1;durP2;ratioP2;P2;SDS_P1;SDS_P2;PMS_P1;PMS_P2;Temp;Humidity;BMP_temperature;BMP_pressure;BME280_temperature;BME280_humidity;BME280_pressure;Samples;Min_cycle;Max_cycle;Signal;HPM_P1;HPM_P2
2023/05/13 00:00:39;;;;;;;;;;;;;;;;;;6211320;22;20130;-92
2023/05/13 00:03:05;;;;;;;;;;;;;;;;;;6211593;22;19937;-92
2023/05/13 00:05:31;;;;;;;;;;;;;;;;;;6209912;22;20498;-92
2023/05/13 00:08:00;;;;;;;;;;;;;;;;;;6212381;22;19965;-92
2023/05/13 00:10:26;;;;;;;;;;;;;;;;;;6210936;22;19926;-92
2023/05/13 00:12:52;;;;;;;;;;;;;;;;;;6237975;22;19915;-92
2023/05/13 00:15:18;;;;;;;;;;;;;;;;;;6213107;22;19994;-92
2023/05/13 00:17:45;;;;;;;;;;;;;;;;;;6213379;22;19922;-91
2023/05/13 00:20:11;;;;;;;;;;;;;;;;;;6237617;22;19924;-92
2023/05/13 00:22:36;;;;;;;;;;;;;;;;;;6210819;22;19919;-92
2023/05/13 00:25:03;;;;;;;;;;;;;;;;;;6237364;22;19926;-93
2023/05/13 00:27:31;;;;;;;;;;;;;;;;;;6234501;22;19955;-92
2023/05/13 00:29:58;;;;;;;;;;;;;;;;;;6214712;22;19919;-92
2023/05/13 00:32:24;;;;;;;;;;;;;;;;;;6236996;22;19919;-92
2023/05/13 00:34:50;;;;;;;;;;;;;;;;;;6214451;22;20297;-91
2023/05/13 00:37:16;;;;;;;;;;;;;;;;;;6215903;22;19916;-91
2023/05/13 00:39:42;;;;;;;;;;;;;;;;;;6213321;22;19962;-92
2023/05/13 00:42:11;;;;;;;;;;;;;;;;;;6213382;22;20336;-92
2023/05/13 00:44:37;;;;;;;;;;;;;;;;;;6213770;22;20249;-92
2023/05/13 00:47:02;;;;;;;;;;;;;;;;;;6240286;22;19994;-92
2023/05/13 00:49:28;;;;;;;;;;;;;;;;;;6237799;22;19923;-92
2023/05/13 00:51:55;;;;;;;;;;;;;;;;;;6214229;22;19916;-93
2023/05/13 00:54:21;;;;;;;;;;;;;;;;;;6212997;22;19923;-92
2023/05/13 00:56:46;;;;;;;;;;;;;;;;;;6240975;22;19942;-92
2023/05/13 00:59:15;;;;;;;;;;;;;;;;;;6237064;22;20045;-92
2023/05/13 01:01:43;;;;;;;;;;;;;;;;;;6237555;22;19916;-92
2023/05/13 01:04:09;;;;;;;;;;;;;;;;;;6239546;22;20370;-91
2023/05/13 01:06:35;;;;;;;;;;;;;;;;;;6211737;22;19919;-91
2023/05/13 01:09:01;;;;;;;;;;;;;;;;;;6215943;22;19976;-93
2023/05/13 01:11:27;;;;;;;;;;;;;;;;;;6211395;22;19993;-92
2023/05/13 01:13:53;;;;;;;;;;;;;;;;;;6239673;22;19926;-92
2023/05/13 01:16:19;;;;;;;;;;;;;;;;;;6236134;22;19919;-92
2023/05/13 01:18:45;;;;;;;;;;;;;;;;;;6242171;22;19915;-92
2023/05/13 01:21:11;;;;;;;;;;;;;;;;;;6214740;22;19969;-91
2023/05/13 01:23:37;;;;;;;;;;;;;;;;;;6213570;22;19919;-92
2023/05/13 01:26:03;;;;;;;;;;;;;;;;;;6215660;22;19922;-91
2023/05/13 01:28:29;;;;;;;;;;;;;;;;;;6210428;22;19989;-92
2023/05/13 01:30:55;;;;;;;;;;;;;;;;;;6239278;22;19919;-92
2023/05/13 01:33:21;;;;;;;;;;;;;;;;;;6239181;22;19915;-92
2023/05/13 01:35:47;;;;;;;;;;;;;;;;;;6216718;22;20397;-92
2023/05/13 01:38:14;;;;;;;;;;;;;;;;;;6214465;22;19946;-92
2023/05/13 01:40:40;;;;;;;;;;;;;;;;;;6240144;22;20319;-91
2023/05/13 01:43:06;;;;;;;;;;;;;;;;;;6216095;22;19921;-91
2023/05/13 01:45:35;;;;;;;;;;;;;;;;;;6214371;22;19993;-92
2023/05/13 01:48:01;;;;;;;;;;;;;;;;;;6240300;22;19919;-91
2023/05/13 01:50:26;;;;;;;;;;;;;;;;;;6213537;22;20298;-92
2023/05/13 01:52:52;;;;;;;;;;;;;;;;;;6241482;22;19968;-91
2023/05/13 01:55:18;;;;;;;;;;;;;;;;;;6216262;22;19919;-91
2023/05/13 01:57:44;;;;;;;;;;;;;;;;;;6215614;22;19942;-91
2023/05/13 02:00:10;;;;;;;;;;;;;;;;;;6216855;22;19958;-91
2023/05/13 02:02:36;;;;;;;;;;;;;;;;;;6238823;22;19922;-92
2023/05/13 02:05:02;;;;;;;;;;;;;;;;;;6215854;22;20021;-92
2023/05/13 02:07:28;;;;;;;;;;;;;;;;;;6239447;22;20015;-92
2023/05/13 02:09:58;;;;;;;;;;;;;;;;;;6242601;22;19928;-92
2023/05/13 02:12:24;;;;;;;;;;;;;;;;;;6241464;22;19919;-91
2023/05/13 02:14:50;;;;;;;;;;;;;;;;;;6243335;22;19923;-92
2023/05/13 02:17:16;;;;;;;;;;;;;;;;;;6218757;22;20362;-92
2023/05/13 02:19:42;;;;;;;;;;;;;;;;;;6216055;22;19919;-92
2023/05/13 02:22:08;;;;;;;;;;;;;;;;;;6218222;22;19958;-91
2023/05/13 02:24:35;;;;;;;;;;;;;;;;;;6238807;22;19930;-92
2023/05/13 02:27:01;;;;;;;;;;;;;;;;;;6243390;22;19954;-91
2023/05/13 02:29:27;;;;;;;;;;;;;;;;;;6215244;22;19950;-92
2023/05/13 02:31:54;;;;;;;;;;;;;;;;;;6217522;22;20346;-92
2023/05/13 02:34:20;;;;;;;;;;;;;;;;;;6215972;22;19919;-91
2023/05/13 02:36:47;;;;;;;;;;;;;;;;;;6217726;22;19926;-92
2023/05/13 02:39:13;;;;;;;;;;;;;;;;;;6217011;22;19919;-92
2023/05/13 02:41:39;;;;;;;;;;;;;;;;;;6214969;22;19919;-91
2023/05/13 02:44:05;;;;;;;;;;;;;;;;;;6216143;22;19927;-90
2023/05/13 02:46:31;;;;;;;;;;;;;;;;;;6239147;22;19926;-92
2023/05/13 02:48:58;;;;;;;;;;;;;;;;;;6240923;22;19919;-92
2023/05/13 02:51:24;;;;;;;;;;;;;;;;;;6213201;22;19919;-92
2023/05/13 02:53:50;;;;;;;;;;;;;;;;;;6214722;22;19930;-92
2023/05/13 02:56:17;;;;;;;;;;;;;;;;;;6215702;22;19990;-91
2023/05/13 02:58:43;;;;;;;;;;;;;;;;;;6214775;22;19919;-91
2023/05/13 03:01:09;;;;;;;;;;;;;;;;;;6242411;22;19926;-92
2023/05/13 03:03:35;;;;;;;;;;;;;;;;;;6240460;22;19923;-92
2023/05/13 03:06:01;;;;;;;;;;;;;;;;;;6241022;22;19919;-92
2023/05/13 03:08:27;;;;;;;;;;;;;;;;;;6238529;22;19915;-91
2023/05/13 03:10:53;;;;;;;;;;;;;;;;;;6215595;22;20338;-92
2023/05/13 03:13:19;;;;;;;;;;;;;;;;;;6239936;22;19926;-92
2023/05/13 03:15:45;;;;;;;;;;;;;;;;;;6214629;22;19949;-92
2023/05/13 03:18:11;;;;;;;;;;;;;;;;;;6241405;22;19923;-91
2023/05/13 03:20:37;;;;;;;;;;;;;;;;;;6213072;22;20415;-90
2023/05/13 03:23:03;;;;;;;;;;;;;;;;;;6215070;22;19962;-92
2023/05/13 03:25:30;;;;;;;;;;;;;;;;;;6214757;22;19923;-92
2023/05/13 03:27:56;;;;;;;;;;;;;;;;;;6241617;22;19986;-92
2023/05/13 03:30:22;;;;;;;;;;;;;;;;;;6212499;22;20004;-91
2023/05/13 03:32:48;;;;;;;;;;;;;;;;;;6216856;22;19926;-91
2023/05/13 03:35:14;;;;;;;;;;;;;;;;;;6217163;22;19919;-92
2023/05/13 03:37:40;;;;;;;;;;;;;;;;;;6237750;22;20339;-91
2023/05/13 03:40:06;;;;;;;;;;;;;;;;;;6216758;22;20264;-92
2023/05/13 03:42:32;;;;;;;;;;;;;;;;;;6211248;22;19953;-91
2023/05/13 03:44:58;;;;;;;;;;;;;;;;;;6213807;22;19923;-91
2023/05/13 03:47:24;;;;;;;;;;;;;;;;;;6235105;22;20324;-91
2023/05/13 03:49:50;;;;;;;;;;;;;;;;;;6213809;22;19923;-91
2023/05/13 03:52:16;;;;;;;;;;;;;;;;;;6240666;22;19915;-92
2023/05/13 03:54:42;;;;;;;;;;;;;;;;;;6212744;22;19923;-91
2023/05/13 03:57:08;;;;;;;;;;;;;;;;;;6239127;22;20354;-92
2023/05/13 03:59:34;;;;;;;;;;;;;;;;;;6216478;22;19926;-90
2023/05/13 04:02:00;;;;;;;;;;;;;;;;;;6242183;22;19923;-92
2023/05/13 04:04:26;;;;;;;;;;;;;;;;;;6240506;22;19967;-91
2023/05/13 04:06:52;;;;;;;;;;;;;;;;;;6213319;22;19969;-91
2023/05/13 04:09:20;;;;;;;;;;;;;;;;;;6240011;22;19915;-91
2023/05/13 04:11:46;;;;;;;;;;;;;;;;;;6214346;22;19958;-92
2023/05/13 04:14:12;;;;;;;;;;;;;;;;;;6238197;22;20332;-91
2023/05/13 04:16:38;;;;;;;;;;;;;;;;;;6212392;22;20278;-91
2023/05/13 04:19:04;;;;;;;;;;;;;;;;;;6216268;22;19958;-91
2023/05/13 04:21:31;;;;;;;;;;;;;;;;;;6238361;22;19919;-92
2023/05/13 04:23:57;;;;;;;;;;;;;;;;;;6241792;22;19923;-92
2023/05/13 04:26:23;;;;;;;;;;;;;;;;;;6213837;22;19919;-91
2023/05/13 04:28:49;;;;;;;;;;;;;;;;;;6217579;22;19919;-91
2023/05/13 04:31:15;;;;;;;;;;;;;;;;;;6216441;22;20221;-91
2023/05/13 04:33:40;;;;;;;;;;;;;;;;;;6213691;22;19923;-91
2023/05/13 04:36:06;;;;;;;;;;;;;;;;;;6215027;22;19915;-91
2023/05/13 04:38:32;;;;;;;;;;;;;;;;;;6213714;22;19956;-91
2023/05/13 04:40:58;;;;;;;;;;;;;;;;;;6240642;22;19919;-91
2023/05/13 04:43:24;;;;;;;;;;;;;;;;;;6237491;22;19923;-91
2023/05/13 04:45:50;;;;;;;;;;;;;;;;;;6237926;22;19927;-91
2023/05/13 04:48:16;;;;;;;;;;;;;;;;;;6239586;22;20331;-92
2023/05/13 04:50:42;;;;;;;;;;;;;;;;;;6238342;22;19923;-91
2023/05/13 04:53:08;;;;;;;;;;;;;;;;;;6213257;22;19919;-91
2023/05/13 04:55:34;;;;;;;;;;;;;;;;;;6212149;22;19938;-91
2023/05/13 04:58:00;;;;;;;;;;;;;;;;;;6213991;22;19997;-91
2023/05/13 05:00:26;;;;;;;;;;;;;;;;;;6211919;22;20232;-92
2023/05/13 05:02:52;;;;;;;;;;;;;;;;;;6240582;22;20016;-91
2023/05/13 05:05:18;;;;;;;;;;;;;;;;;;6215813;22;19930;-91
2023/05/13 05:07:44;;;;;;;;;;;;;;;;;;6213115;22;19982;-91
2023/05/13 05:10:10;;;;;;;;;;;;;;;;;;6213957;22;19919;-91
2023/05/13 05:12:37;;;;;;;;;;;;;;;;;;6213319;22;19945;-91
2023/05/13 05:15:02;;;;;;;;;;;;;;;;;;6215943;22;19923;-92
2023/05/13 05:17:31;;;;;;;;;;;;;;;;;;6212679;22;19923;-90
2023/05/13 05:19:58;;;;;;;;;;;;;;;;;;6213494;22;19915;-92
2023/05/13 05:22:24;;;;;;;;;;;;;;;;;;6238187;22;20197;-91
2023/05/13 05:24:50;;;;;;;;;;;;;;;;;;6242179;22;19934;-91
2023/05/13 05:27:16;;;;;;;;;;;;;;;;;;6216272;22;19926;-91
2023/05/13 05:29:42;;;;;;;;;;;;;;;;;;6213837;22;19923;-91
2023/05/13 05:32:08;;;;;;;;;;;;;;;;;;6217604;22;19919;-91
2023/05/13 05:34:34;;;;;;;;;;;;;;;;;;6213420;22;19915;-90
2023/05/13 05:37:00;;;;;;;;;;;;;;;;;;6239331;22;19923;-91
2023/05/13 05:39:26;;;;;;;;;;;;;;;;;;6208837;22;19923;-92
2023/05/13 05:41:52;;;;;;;;;;;;;;;;;;6214814;22;19927;-90
2023/05/13 05:44:19;;;;;;;;;;;;;;;;;;6239961;22;19919;-90
2023/05/13 05:46:46;;;;;;;;;;;;;;;;;;6212892;22;19923;-91
2023/05/13 05:49:13;;;;;;;;;;;;;;;;;;6213177;22;19926;-92
2023/05/13 05:51:41;;;;;;;;;;;;;;;;;;6210874;22;20054;-90
2023/05/13 05:54:08;;;;;;;;;;;;;;;;;;6213650;22;19925;-91
2023/05/13 05:56:35;;;;;;;;;;;;;;;;;;6234817;22;19980;-91
2023/05/13 05:59:02;;;;;;;;;;;;;;;;;;6214784;22;20251;-90
2023/05/13 06:01:55;;;;;;;;;;;;;;;;;;;;;
2023/05/13 06:10:39;;;;;;;;;;;;;;;;;;;;;
2023/05/13 06:16:09;;;;;;;;;;;;;;;;;;6222364;22;19940;-91
2023/05/13 06:18:45;;;;;;;;;;;;;;;;;;6237973;22;20225;-91
2023/05/13 06:21:23;;;;;;;;;;;;;;;;;;;;;
2023/05/13 06:23:53;;;;;;;;;;;;;;;;;;6241651;22;19916;-90
2023/05/13 06:26:48;;;;;;;;;;;;;;;;;;;;;
2023/05/13 06:29:21;;;;;;;;;;;;;;;;;;6241707;22;20236;-91
2023/05/13 06:32:04;;;;;;;;;;;;;;;;;;6242929;22;20267;-91
2023/05/13 06:34:54;;;;;;;;;;;;;;;;;;;;;
2023/05/13 06:37:44;;;;;;;;;;;;;;;;;;6153960;23;20019;-91
2023/05/13 06:40:31;;;;;;;;;;;;;;;;;;;;;
2023/05/13 06:43:13;;;;;;;;;;;;;;;;;;6085455;23;19921;-91
2023/05/13 06:45:51;;;;;;;;;;;;;;;;;;6084849;23;19925;-91
2023/05/13 06:48:19;;;;;;;;;;;;;;;;;;6060440;23;19917;-91
2023/05/13 06:51:15;;;;;;;;;;;;;;;;;;6063856;23;19928;-91
2023/05/13 06:53:46;;;;;;;;;;;;;;;;;;6036856;23;20000;-91
2023/05/13 06:56:16;;;;;;;;;;;;;;;;;;6058143;23;19997;-91
2023/05/13 06:59:02;;;;;;;;;;;;;;;;;;6038141;23;19926;-92
2023/05/13 07:01:29;;;;;;;;;;;;;;;;;;6009279;23;19926;-90
2023/05/13 07:03:56;;;;;;;;;;;;;;;;;;6011906;23;19921;-91
2023/05/13 07:06:24;;;;;;;;;;;;;;;;;;6016849;23;19929;-91
2023/05/13 07:08:51;;;;;;;;;;;;;;;;;;6047812;23;19970;-92
2023/05/13 07:11:18;;;;;;;;;;;;;;;;;;6048031;23;19925;-90
2023/05/13 07:13:46;;;;;;;;;;;;;;;;;;6067479;23;19957;-91
2023/05/13 07:16:13;;;;;;;;;;;;;;;;;;6141925;23;19995;-91
2023/05/13 07:18:40;;;;;;;;;;;;;;;;;;6135372;23;21018;-91
2023/05/13 07:21:07;;;;;;;;;;;;;;;;;;6127077;23;20002;-91
2023/05/13 07:23:35;;;;;;;;;;;;;;;;;;6126885;23;20333;-91
2023/05/13 07:26:02;;;;;;;;;;;;;;;;;;6128079;23;20406;-91
2023/05/13 07:28:29;;;;;;;;;;;;;;;;;;6149589;23;19931;-92
2023/05/13 07:30:57;;;;;;;;;;;;;;;;;;6126002;23;19990;-91
2023/05/13 07:33:24;;;;;;;;;;;;;;;;;;6145621;23;19920;-92
2023/05/13 07:35:51;;;;;;;;;;;;;;;;;;6211123;23;20396;-92
2023/05/13 07:38:19;;;;;;;;;;;;;;;;;;6186512;23;19922;-91
2023/05/13 07:40:46;;;;;;;;;;;;;;;;;;6221302;22;19918;-91
2023/05/13 07:43:16;;;;;;;;;;;;;;;;;;6241541;22;19915;-92
2023/05/13 07:45:43;;;;;;;;;;;;;;;;;;6238456;22;20080;-92
2023/05/13 07:48:11;;;;;;;;;;;;;;;;;;6242421;22;20005;-92
2023/05/13 07:50:38;;;;;;;;;;;;;;;;;;6239252;22;20331;-92
2023/05/13 07:53:06;;;;;;;;;;;;;;;;;;6241685;22;19922;-92
2023/05/13 07:55:31;;;;;;;;;;;;;;;;;;6240052;22;19919;-92
2023/05/13 07:57:58;;;;;;;;;;;;;;;;;;6241442;22;19925;-91
2023/05/13 08:00:23;;;;;;;;;;;;;;;;;;6238854;22;19915;-92
2023/05/13 08:02:50;;;;;;;;;;;;;;;;;;6241598;22;19919;-92
2023/05/13 08:05:16;;;;;;;;;;;;;;;;;;6216395;22;20301;-91
2023/05/13 08:07:42;;;;;;;;;;;;;;;;;;6214377;22;19990;-92
2023/05/13 08:10:07;;;;;;;;;;;;;;;;;;6241197;22;20229;-93
2023/05/13 08:12:33;;;;;;;;;;;;;;;;;;6238354;22;19923;-92
2023/05/13 08:14:59;;;;;;;;;;;;;;;;;;6243377;22;20415;-92
2023/05/13 08:17:25;;;;;;;;;;;;;;;;;;6216416;22;19927;-92
2023/05/13 08:19:51;;;;;;;;;;;;;;;;;;6244730;22;19951;-92
2023/05/13 08:22:17;;;;;;;;;;;;;;;;;;6246929;22;19925;-91
2023/05/13 08:24:43;;;;;;;;;;;;;;;;;;6222117;22;19974;-92
2023/05/13 08:27:09;;;;;;;;;;;;;;;;;;6220142;22;19919;-90
2023/05/13 08:29:35;;;;;;;;;;;;;;;;;;6215726;22;19965;-93
2023/05/13 08:32:01;;;;;;;;;;;;;;;;;;6219858;22;20137;-92
2023/05/13 08:34:27;;;;;;;;;;;;;;;;;;6219822;22;20382;-93
2023/05/13 08:36:53;;;;;;;;;;;;;;;;;;6220145;22;19916;-92
2023/05/13 08:39:19;;;;;;;;;;;;;;;;;;6244142;22;19946;-92
2023/05/13 08:41:45;;;;;;;;;;;;;;;;;;6223817;22;19986;-92
2023/05/13 08:44:20;;;;;;;;;;;;;;;;;;6248124;22;19930;-92
2023/05/13 08:46:46;;;;;;;;;;;;;;;;;;6223543;22;19915;-92
2023/05/13 08:49:12;;;;;;;;;;;;;;;;;;6247845;22;20335;-93
2023/05/13 08:51:39;;;;;;;;;;;;;;;;;;6221906;22;19937;-93
2023/05/13 08:54:05;;;;;;;;;;;;;;;;;;6223944;22;19915;-92
2023/05/13 08:56:31;;;;;;;;;;;;;;;;;;6220496;22;19959;-91
2023/05/13 08:58:57;;;;;;;;;;;;;;;;;;6247857;22;20247;-90
2023/05/13 09:01:25;;;;;;;;;;;;;;;;;;6221390;22;19919;-93
2023/05/13 09:03:51;;;;;;;;;;;;;;;;;;6223976;22;19946;-93
2023/05/13 09:06:20;;;;;;;;;;;;;;;;;;6248415;22;19919;-92
2023/05/13 09:08:46;;;;;;;;;;;;;;;;;;6222866;22;20041;-92
2023/05/13 09:11:14;;;;;;;;;;;;;;;;;;6218780;22;20351;-92
2023/05/13 09:13:40;;;;;;;;;;;;;;;;;;6243267;22;19930;-93
2023/05/13 09:16:07;;;;;;;;;;;;;;;;;;6247142;22;19958;-93
2023/05/13 09:18:33;;;;;;;;;;;;;;;;;;6245434;22;20277;-94
2023/05/13 09:20:59;;;;;;;;;;;;;;;;;;6246495;22;19915;-94
2023/05/13 09:23:25;;;;;;;;;;;;;;;;;;6215365;22;20405;-89
2023/05/13 09:25:51;;;;;;;;;;;;;;;;;;6213061;22;19923;-82
2023/05/13 09:28:22;;;;;;;;;;;;;;;;;;6264230;22;19923;-82
2023/05/13 09:30:50;;;;;;;;;;;;;;;;;;6213891;22;19925;-81
2023/05/13 09:33:18;;;;;;;;;;;;;;;;;;6239065;22;19919;-82
2023/05/13 09:35:44;;;;;;;;;;;;;;;;;;6236901;22;19915;-82
2023/05/13 09:38:10;;;;;;;;;;;;;;;;;;6265060;22;20344;-81
2023/05/13 09:40:36;;;;;;;;;;;;;;;;;;6237212;22;19925;-82
2023/05/13 09:43:03;;;;;;;;;;;;;;;;;;6239929;22;19919;-82
2023/05/13 09:45:30;;;;;;;;;;;;;;;;;;6235979;22;19923;-82
2023/05/13 09:47:56;;;;;;;;;;;;;;;;;;6236616;22;20688;-83
2023/05/13 09:50:22;;;;;;;;;;;;;;;;;;6236429;22;19944;-82
2023/05/13 09:52:48;;;;;;;;;;;;;;;;;;6237855;22;19987;-83
2023/05/13 09:55:14;;;;;;;;;;;;;;;;;;6209918;22;19981;-82
2023/05/13 09:57:40;;;;;;;;;;;;;;;;;;6263733;22;20009;-83
2023/05/13 10:00:06;;;;;;;;;;;;;;;;;;6238827;22;19922;-83
2023/05/13 10:02:33;;;;;;;;;;;;;;;;;;6239765;22;19962;-93
2023/05/13 10:04:59;;;;;;;;;;;;;;;;;;6223603;22;19930;-93
2023/05/13 10:07:25;;;;;;;;;;;;;;;;;;6245784;22;19919;-93
2023/05/13 10:09:52;;;;;;;;;;;;;;;;;;6218636;22;19955;-93
2023/05/13 10:12:18;;;;;;;;;;;;;;;;;;6244501;22;20332;-93
2023/05/13 10:14:47;;;;;;;;;;;;;;;;;;6244838;22;19915;-93
2023/05/13 10:17:13;;;;;;;;;;;;;;;;;;6221154;22;19969;-94
2023/05/13 10:19:39;;;;;;;;;;;;;;;;;;6243291;22;19919;-94
2023/05/13 10:22:05;;;;;;;;;;;;;;;;;;6246726;22;19919;-93
2023/05/13 10:24:31;;;;;;;;;;;;;;;;;;6244191;22;19989;-93
2023/05/13 10:26:57;;;;;;;;;;;;;;;;;;6220829;22;19915;-94
2023/05/13 10:29:23;;;;;;;;;;;;;;;;;;6241825;22;20345;-94
2023/05/13 10:31:49;;;;;;;;;;;;;;;;;;6219355;22;20002;-94
2023/05/13 10:34:15;;;;;;;;;;;;;;;;;;6243696;22;19994;-84
2023/05/13 10:36:41;;;;;;;;;;;;;;;;;;6238090;22;19955;-83
2023/05/13 10:39:07;;;;;;;;;;;;;;;;;;6239705;22;19919;-83
2023/05/13 10:41:33;;;;;;;;;;;;;;;;;;6267196;22;19969;-83
2023/05/13 10:43:59;;;;;;;;;;;;;;;;;;6268928;22;19926;-83
2023/05/13 10:46:25;;;;;;;;;;;;;;;;;;6213939;22;19919;-83
2023/05/13 10:48:51;;;;;;;;;;;;;;;;;;6267553;22;19919;-85
2023/05/13 10:51:17;;;;;;;;;;;;;;;;;;6242637;22;19923;-84
2023/05/13 10:53:43;;;;;;;;;;;;;;;;;;6239598;22;19915;-83
2023/05/13 10:56:09;;;;;;;;;;;;;;;;;;6215861;22;20233;-85
2023/05/13 10:58:37;;;;;;;;;;;;;;;;;;6237516;22;19926;-85
2023/05/13 11:01:03;;;;;;;;;;;;;;;;;;6216776;22;19994;-85
2023/05/13 11:03:29;;;;;;;;;;;;;;;;;;6213885;22;19951;-85
2023/05/13 11:05:56;;;;;;;;;;;;;;;;;;6244481;22;19927;-92
2023/05/13 11:08:25;;;;;;;;;;;;;;;;;;6218755;22;19926;-92
2023/05/13 11:10:51;;;;;;;;;;;;;;;;;;6220485;22;19954;-94
2023/05/13 11:13:17;;;;;;;;;;;;;;;;;;6217328;22;19920;-85
2023/05/13 11:15:44;;;;;;;;;;;;;;;;;;6237147;22;19938;-86
2023/05/13 11:18:10;;;;;;;;;;;;;;;;;;6211893;22;19994;-85
2023/05/13 11:20:36;;;;;;;;;;;;;;;;;;6238174;22;19955;-84
2023/05/13 11:23:02;;;;;;;;;;;;;;;;;;6238569;22;19919;-85
2023/05/13 11:25:28;;;;;;;;;;;;;;;;;;6210969;22;19927;-85
2023/05/13 11:27:54;;;;;;;;;;;;;;;;;;6239831;22;19993;-85
2023/05/13 11:30:20;;;;;;;;;;;;;;;;;;6236380;22;19934;-85
2023/05/13 11:32:46;;;;;;;;;;;;;;;;;;6238938;22;19919;-85
2023/05/13 11:35:12;;;;;;;;;;;;;;;;;;6239859;22;19920;-85
2023/05/13 11:37:38;;;;;;;;;;;;;;;;;;6211043;22;19930;-85
2023/05/13 11:40:04;;;;;;;;;;;;;;;;;;6237016;22;20287;-85
2023/05/13 11:42:30;;;;;;;;;;;;;;;;;;6210870;22;19923;-85
2023/05/13 11:44:56;;;;;;;;;;;;;;;;;;6237952;22;19923;-85
2023/05/13 11:47:22;;;;;;;;;;;;;;;;;;6211178;22;19920;-85
2023/05/13 11:49:48;;;;;;;;;;;;;;;;;;6241565;22;19919;-85
2023/05/13 11:52:14;;;;;;;;;;;;;;;;;;6239002;22;19919;-85
2023/05/13 11:54:41;;;;;;;;;;;;;;;;;;6238038;22;20758;-85
2023/05/13 11:57:07;;;;;;;;;;;;;;;;;;6214947;22;19926;-85
2023/05/13 11:59:34;;;;;;;;;;;;;;;;;;6236304;22;19919;-85
2023/05/13 12:02:00;;;;;;;;;;;;;;;;;;6240373;22;19923;-84
2023/05/13 12:04:26;;;;;;;;;;;;;;;;;;6213600;22;19930;-85
2023/05/13 12:06:52;;;;;;;;;;;;;;;;;;6215214;22;20239;-84
2023/05/13 12:09:18;;;;;;;;;;;;;;;;;;6240755;22;19926;-85
2023/05/13 12:11:44;;;;;;;;;;;;;;;;;;6214598;22;19947;-84
2023/05/13 12:14:10;;;;;;;;;;;;;;;;;;6241332;22;19923;-84
2023/05/13 12:16:36;;;;;;;;;;;;;;;;;;6239993;22;19919;-85
2023/05/13 12:19:02;;;;;;;;;;;;;;;;;;6216032;22;19921;-84
2023/05/13 12:21:28;;;;;;;;;;;;;;;;;;6240175;22;20427;-84
2023/05/13 12:23:54;;;;;;;;;;;;;;;;;;6216924;22;19954;-84
2023/05/13 12:26:20;;;;;;;;;;;;;;;;;;6213618;22;19923;-84
2023/05/13 12:28:47;;;;;;;;;;;;;;;;;;6213427;22;19986;-85
2023/05/13 12:31:13;;;;;;;;;;;;;;;;;;6239467;22;19991;-85
2023/05/13 12:33:39;;;;;;;;;;;;;;;;;;6237414;22;19962;-85
2023/05/13 12:36:06;;;;;;;;;;;;;;;;;;6238046;22;19919;-85
2023/05/13 12:38:32;;;;;;;;;;;;;;;;;;6231437;22;19919;-85
2023/05/13 12:40:59;;;;;;;;;;;;;;;;;;6237811;22;19919;-85
2023/05/13 12:43:25;;;;;;;;;;;;;;;;;;6236442;22;19919;-85
2023/05/13 12:45:51;;;;;;;;;;;;;;;;;;6240504;22;19923;-85
2023/05/13 12:48:17;;;;;;;;;;;;;;;;;;6236478;22;20038;-85
2023/05/13 12:50:43;;;;;;;;;;;;;;;;;;6211879;22;19942;-85
2023/05/13 12:53:09;;;;;;;;;;;;;;;;;;6237583;22;20034;-85
2023/05/13 12:55:38;;;;;;;;;;;;;;;;;;6238196;22;19923;-85
2023/05/13 12:58:04;;;;;;;;;;;;;;;;;;6265119;22;19922;-85
2023/05/13 13:00:30;;;;;;;;;;;;;;;;;;6264678;22;20366;-85
2023/05/13 13:02:56;;;;;;;;;;;;;;;;;;6241403;22;19919;-85
2023/05/13 13:05:22;;;;;;;;;;;;;;;;;;6263611;22;20325;-85
2023/05/13 13:07:48;;;;;;;;;;;;;;;;;;6239008;22;19923;-85
2023/05/13 13:10:14;;;;;;;;;;;;;;;;;;6268141;22;19919;-85
2023/05/13 13:12:40;;;;;;;;;;;;;;;;;;6239698;22;20354;-85
2023/05/13 13:15:06;;;;;;;;;;;;;;;;;;6239994;22;19973;-84
2023/05/13 13:17:33;;;;;;;;;;;;;;;;;;6265552;22;19915;-84
2023/05/13 13:20:01;;;;;;;;;;;;;;;;;;6269694;22;20247;-84
2023/05/13 13:22:27;;;;;;;;;;;;;;;;;;6265798;22;19919;-84
2023/05/13 13:24:53;;;;;;;;;;;;;;;;;;6214930;22;20606;-83
2023/05/13 13:27:19;;;;;;;;;;;;;;;;;;6212461;22;19921;-85
2023/05/13 13:29:45;;;;;;;;;;;;;;;;;;6213267;22;19915;-85
2023/05/13 13:32:11;;;;;;;;;;;;;;;;;;6268301;22;20282;-84
2023/05/13 13:34:37;;;;;;;;;;;;;;;;;;6263517;22;19916;-85
2023/05/13 13:37:03;;;;;;;;;;;;;;;;;;6239220;22;19973;-85
2023/05/13 13:39:29;;;;;;;;;;;;;;;;;;6235340;22;19919;-85
2023/05/13 13:41:56;;;;;;;;;;;;;;;;;;6237101;22;19919;-85
2023/05/13 13:44:23;;;;;;;;;;;;;;;;;;6237216;22;19933;-84
2023/05/13 13:46:49;;;;;;;;;;;;;;;;;;6242094;22;19922;-85
2023/05/13 13:49:17;;;;;;;;;;;;;;;;;;6241080;22;19919;-85
2023/05/13 13:51:43;;;;;;;;;;;;;;;;;;6237444;22;19990;-85
2023/05/13 13:54:10;;;;;;;;;;;;;;;;;;6215271;22;19970;-86
2023/05/13 13:56:38;;;;;;;;;;;;;;;;;;6262887;22;20018;-85
2023/05/13 13:59:04;;;;;;;;;;;;;;;;;;6237054;22;19919;-87
2023/05/13 14:01:31;;;;;;;;;;;;;;;;;;6239441;22;19923;-85
2023/05/13 14:03:57;;;;;;;;;;;;;;;;;;6216964;22;19994;-85
2023/05/13 14:06:23;;;;;;;;;;;;;;;;;;6212949;22;19959;-85
2023/05/13 14:08:50;;;;;;;;;;;;;;;;;;6241211;22;19968;-85
2023/05/13 14:11:16;;;;;;;;;;;;;;;;;;6241096;22;19922;-85
2023/05/13 14:13:42;;;;;;;;;;;;;;;;;;6214192;22;19919;-85
2023/05/13 14:16:08;;;;;;;;;;;;;;;;;;6268207;22;19915;-85
2023/05/13 14:18:34;;;;;;;;;;;;;;;;;;6266750;22;19950;-86
2023/05/13 14:21:00;;;;;;;;;;;;;;;;;;6216615;22;19945;-85
2023/05/13 14:23:26;;;;;;;;;;;;;;;;;;6235894;22;20272;-85
2023/05/13 14:25:52;;;;;;;;;;;;;;;;;;6240483;22;19945;-85
2023/05/13 14:28:18;;;;;;;;;;;;;;;;;;6238719;22;20608;-84
2023/05/13 14:30:44;;;;;;;;;;;;;;;;;;6215978;22;19915;-85
2023/05/13 14:33:11;;;;;;;;;;;;;;;;;;6239397;22;19994;-85
2023/05/13 14:35:37;;;;;;;;;;;;;;;;;;6240121;22;19915;-85
2023/05/13 14:38:03;;;;;;;;;;;;;;;;;;6217370;22;20295;-85
2023/05/13 14:40:29;;;;;;;;;;;;;;;;;;6241934;22;20203;-85
2023/05/13 14:42:55;;;;;;;;;;;;;;;;;;6215879;22;19926;-85
2023/05/13 14:45:21;;;;;;;;;;;;;;;;;;6238723;22;19919;-85
2023/05/13 14:47:48;;;;;;;;;;;;;;;;;;6240279;22;19919;-85
2023/05/13 14:50:15;;;;;;;;;;;;;;;;;;6240506;22;19915;-85
2023/05/13 14:52:40;;;;;;;;;;;;;;;;;;6239257;22;20576;-85
2023/05/13 14:55:06;;;;;;;;;;;;;;;;;;6239122;22;20474;-86
2023/05/13 14:57:32;;;;;;;;;;;;;;;;;;6214172;22;20258;-85
2023/05/13 14:59:58;;;;;;;;;;;;;;;;;;6237934;22;19964;-85
2023/05/13 15:02:24;;;;;;;;;;;;;;;;;;6215477;22;19922;-85
2023/05/13 15:04:50;;;;;;;;;;;;;;;;;;6241692;22;19931;-85
2023/05/13 15:07:16;;;;;;;;;;;;;;;;;;6216761;22;20328;-86
2023/05/13 15:09:42;;;;;;;;;;;;;;;;;;6238567;22;20244;-85
2023/05/13 15:12:08;;;;;;;;;;;;;;;;;;6242465;22;19915;-85
2023/05/13 15:14:34;;;;;;;;;;;;;;;;;;6239320;22;19925;-85
2023/05/13 15:17:00;;;;;;;;;;;;;;;;;;6242832;22;19927;-85
2023/05/13 15:19:26;;;;;;;;;;;;;;;;;;6236431;22;20362;-85
2023/05/13 15:21:52;;;;;;;;;;;;;;;;;;6213358;22;19990;-85
2023/05/13 15:24:21;;;;;;;;;;;;;;;;;;6238437;22;19919;-89
2023/05/13 15:26:47;;;;;;;;;;;;;;;;;;6215280;22;19990;-86
2023/05/13 15:29:15;;;;;;;;;;;;;;;;;;6215977;22;19974;-85
2023/05/13 15:31:41;;;;;;;;;;;;;;;;;;6215986;22;19919;-85
2023/05/13 15:34:07;;;;;;;;;;;;;;;;;;6214713;22;19926;-86
2023/05/13 15:36:34;;;;;;;;;;;;;;;;;;6238843;22;20243;-85
2023/05/13 15:39:00;;;;;;;;;;;;;;;;;;6239007;22;20622;-85
2023/05/13 15:41:26;;;;;;;;;;;;;;;;;;6238485;22;19954;-84
2023/05/13 15:43:52;;;;;;;;;;;;;;;;;;6213212;22;19950;-87
2023/05/13 15:46:18;;;;;;;;;;;;;;;;;;6212537;22;19923;-84
2023/05/13 15:48:44;;;;;;;;;;;;;;;;;;6209651;22;19919;-84
2023/05/13 15:51:10;;;;;;;;;;;;;;;;;;6213720;22;19954;-84
2023/05/13 15:53:35;;;;;;;;;;;;;;;;;;6211891;22;19934;-84
2023/05/13 15:56:03;;;;;;;;;;;;;;;;;;6213523;22;20190;-84
2023/05/13 15:58:30;;;;;;;;;;;;;;;;;;6210582;22;19915;-83
2023/05/13 16:00:55;;;;;;;;;;;;;;;;;;6214024;22;20290;-84
2023/05/13 16:03:21;;;;;;;;;;;;;;;;;;6237142;22;19922;-84
2023/05/13 16:05:47;;;;;;;;;;;;;;;;;;6239619;22;19931;-83
2023/05/13 16:08:13;;;;;;;;;;;;;;;;;;6267151;22;19919;-84
2023/05/13 16:10:39;;;;;;;;;;;;;;;;;;6212861;22;20374;-84
2023/05/13 16:13:05;;;;;;;;;;;;;;;;;;6238354;22;19919;-84
2023/05/13 16:15:31;;;;;;;;;;;;;;;;;;6264549;22;19954;-84
2023/05/13 16:17:57;;;;;;;;;;;;;;;;;;6239990;22;20379;-84
2023/05/13 16:20:23;;;;;;;;;;;;;;;;;;6264704;22;19915;-84
2023/05/13 16:22:49;;;;;;;;;;;;;;;;;;6239186;22;19919;-84
2023/05/13 16:25:16;;;;;;;;;;;;;;;;;;6268346;22;20284;-83
2023/05/13 16:27:42;;;;;;;;;;;;;;;;;;6210742;22;19919;-83
2023/05/13 16:30:09;;;;;;;;;;;;;;;;;;6239595;22;19998;-84
2023/05/13 16:32:35;;;;;;;;;;;;;;;;;;6263909;22;20255;-85
2023/05/13 16:35:01;;;;;;;;;;;;;;;;;;6214915;22;19919;-83
2023/05/13 16:37:27;;;;;;;;;;;;;;;;;;6236456;22;19919;-84
2023/05/13 16:39:53;;;;;;;;;;;;;;;;;;6266812;22;19921;-84
2023/05/13 16:42:19;;;;;;;;;;;;;;;;;;6239092;22;19919;-83
2023/05/13 16:44:45;;;;;;;;;;;;;;;;;;6267285;22;19919;-83
2023/05/13 16:47:11;;;;;;;;;;;;;;;;;;6237515;22;19919;-84
2023/05/13 16:49:38;;;;;;;;;;;;;;;;;;6210081;22;20344;-84
2023/05/13 16:52:04;;;;;;;;;;;;;;;;;;6238843;22;20247;-84
2023/05/13 16:54:30;;;;;;;;;;;;;;;;;;6240416;22;20233;-83